sensor_id;sensor_type;location;lat;lon;timestamp;temperature;humidity
53152;DHT22;39234;53.158;6.322;2023-04-15T00:00:42;5.70;99.90
53152;DHT22;39234;53.158;6.322;2023-04-15T00:03:08;5.50;99.90
53152;DHT22;39234;53.158;6.322;2023-04-15T00:08:00;5.60;99.90
53152;DHT22;39234;53.158;6.322;2023-04-15T00:10:26;5.60;99.90
53152;DHT22;39234;53.158;6.322;2023-04-15T00:12:52;5.50;99.90
53152;DHT22;39234;53.158;6.322;2023-04-15T00:15:19;5.30;99.90
53152;DHT22;39234;53.158;6.322;2023-04-15T00:17:45;5.40;99.90
53152;DHT22;39234;53.158;6.322;2023-04-15T00:22:37;5.30;99.90
53152;DHT22;39234;53.158;6.322;2023-04-15T00:25:03;5.20;99.90
53152;DHT22;39234;53.158;6.322;2023-04-15T00:27:29;5.20;99.90
53152;DHT22;39234;53.158;6.322;2023-04-15T00:29:55;5.20;99.90
53152;DHT22;39234;53.158;6.322;2023-04-15T00:32:21;5.20;99.90
53152;DHT22;39234;53.158;6.322;2023-04-15T00:34:48;5.20;99.90
53152;DHT22;39234;53.158;6.322;2023-04-15T00:37:14;5.20;99.90
53152;DHT22;39234;53.158;6.322;2023-04-15T00:44:32;5.20;99.90
53152;DHT22;39234;53.158;6.322;2023-04-15T00:47:00;5.10;99.90
53152;DHT22;39234;53.158;6.322;2023-04-15T00:49:27;5.10;99.90
53152;DHT22;39234;53.158;6.322;2023-04-15T00:59:13;5.00;99.90
53152;DHT22;39234;53.158;6.322;2023-04-15T01:11:28;5.10;99.90
53152;DHT22;39234;53.158;6.322;2023-04-15T01:13:57;4.90;99.90
53152;DHT22;39234;53.158;6.322;2023-04-15T01:16:23;4.90;99.90
53152;DHT22;39234;53.158;6.322;2023-04-15T01:23:43;4.90;99.90
53152;DHT22;39234;53.158;6.322;2023-04-15T01:31:10;4.50;99.90
53152;DHT22;39234;53.158;6.322;2023-04-15T01:36:04;4.70;99.90
53152;DHT22;39234;53.158;6.322;2023-04-15T01:43:25;4.60;99.90
53152;DHT22;39234;53.158;6.322;2023-04-15T01:50:43;4.50;99.90
53152;DHT22;39234;53.158;6.322;2023-04-15T02:15:08;4.50;99.90
53152;DHT22;39234;53.158;6.322;2023-04-15T02:17:35;4.70;99.90
53152;DHT22;39234;53.158;6.322;2023-04-15T02:37:12;4.10;99.90
53152;DHT22;39234;53.158;6.322;2023-04-15T02:54:23;4.10;99.90
53152;DHT22;39234;53.158;6.322;2023-04-15T03:11:28;4.10;99.90
53152;DHT22;39234;53.158;6.322;2023-04-15T03:13:53;4.00;99.90
53152;DHT22;39234;53.158;6.322;2023-04-15T03:26:04;4.00;99.90
53152;DHT22;39234;53.158;6.322;2023-04-15T03:33:23;4.00;99.90
53152;DHT22;39234;53.158;6.322;2023-04-15T03:35:50;4.00;99.90
53152;DHT22;39234;53.158;6.322;2023-04-15T03:45:35;3.90;99.90
53152;DHT22;39234;53.158;6.322;2023-04-15T04:17:15;3.80;99.90
53152;DHT22;39234;53.158;6.322;2023-04-15T05:05:59;3.50;99.90
53152;DHT22;39234;53.158;6.322;2023-04-15T05:20:36;3.90;99.90
53152;DHT22;39234;53.158;6.322;2023-04-15T05:27:54;4.50;99.90
53152;DHT22;39234;53.158;6.322;2023-04-15T05:37:38;6.10;99.90
53152;DHT22;39234;53.158;6.322;2023-04-15T05:40:04;6.80;99.90
53152;DHT22;39234;53.158;6.322;2023-04-15T05:42:30;7.00;99.90
53152;DHT22;39234;53.158;6.322;2023-04-15T05:44:56;8.30;99.90
53152;DHT22;39234;53.158;6.322;2023-04-15T05:47:22;8.60;99.90
53152;DHT22;39234;53.158;6.322;2023-04-15T05:49:48;9.00;99.90
53152;DHT22;39234;53.158;6.322;2023-04-15T05:52:13;8.70;99.90
53152;DHT22;39234;53.158;6.322;2023-04-15T05:54:39;9.90;99.90
53152;DHT22;39234;53.158;6.322;2023-04-15T05:57:05;10.40;99.90
53152;DHT22;39234;53.158;6.322;2023-04-15T05:59:31;9.90;99.90
53152;DHT22;39234;53.158;6.322;2023-04-15T06:01:57;8.10;99.90
53152;DHT22;39234;53.158;6.322;2023-04-15T06:04:23;7.90;99.90
53152;DHT22;39234;53.158;6.322;2023-04-15T06:06:49;8.00;99.90
53152;DHT22;39234;53.158;6.322;2023-04-15T06:09:15;8.20;99.90
53152;DHT22;39234;53.158;6.322;2023-04-15T06:11:41;8.50;99.90
53152;DHT22;39234;53.158;6.322;2023-04-15T06:14:07;9.00;99.90
53152;DHT22;39234;53.158;6.322;2023-04-15T06:16:32;10.10;99.90
53152;DHT22;39234;53.158;6.322;2023-04-15T06:18:58;10.20;99.90
53152;DHT22;39234;53.158;6.322;2023-04-15T06:21:24;9.70;99.90
53152;DHT22;39234;53.158;6.322;2023-04-15T06:23:50;9.20;99.90
53152;DHT22;39234;53.158;6.322;2023-04-15T06:26:15;9.60;99.90
53152;DHT22;39234;53.158;6.322;2023-04-15T06:28:41;9.70;99.90
53152;DHT22;39234;53.158;6.322;2023-04-15T06:31:07;9.50;99.90
53152;DHT22;39234;53.158;6.322;2023-04-15T06:33:32;9.70;99.90
53152;DHT22;39234;53.158;6.322;2023-04-15T06:35:58;9.60;99.90
53152;DHT22;39234;53.158;6.322;2023-04-15T06:38:24;9.60;99.90
53152;DHT22;39234;53.158;6.322;2023-04-15T06:40:50;9.60;99.90
53152;DHT22;39234;53.158;6.322;2023-04-15T06:43:16;9.50;99.90
53152;DHT22;39234;53.158;6.322;2023-04-15T06:45:41;9.40;99.90
53152;DHT22;39234;53.158;6.322;2023-04-15T06:48:07;9.60;99.90
53152;DHT22;39234;53.158;6.322;2023-04-15T06:50:33;9.80;99.90
53152;DHT22;39234;53.158;6.322;2023-04-15T06:53:00;10.20;99.90
53152;DHT22;39234;53.158;6.322;2023-04-15T06:55:26;10.60;99.90
53152;DHT22;39234;53.158;6.322;2023-04-15T06:57:52;11.00;99.90
53152;DHT22;39234;53.158;6.322;2023-04-15T07:00:18;11.20;99.90
53152;DHT22;39234;53.158;6.322;2023-04-15T07:02:43;11.50;99.90
53152;DHT22;39234;53.158;6.322;2023-04-15T07:05:09;11.70;99.90
53152;DHT22;39234;53.158;6.322;2023-04-15T07:07:35;11.80;99.90
53152;DHT22;39234;53.158;6.322;2023-04-15T07:10:01;11.90;99.90
53152;DHT22;39234;53.158;6.322;2023-04-15T07:12:27;11.90;99.90
53152;DHT22;39234;53.158;6.322;2023-04-15T07:14:53;12.00;99.90
53152;DHT22;39234;53.158;6.322;2023-04-15T07:17:19;12.10;99.90
53152;DHT22;39234;53.158;6.322;2023-04-15T07:19:45;12.20;99.90
53152;DHT22;39234;53.158;6.322;2023-04-15T07:22:11;12.20;99.90
53152;DHT22;39234;53.158;6.322;2023-04-15T07:24:36;11.90;99.90
53152;DHT22;39234;53.158;6.322;2023-04-15T07:27:02;11.60;99.90
53152;DHT22;39234;53.158;6.322;2023-04-15T07:29:28;11.60;99.90
53152;DHT22;39234;53.158;6.322;2023-04-15T07:31:54;11.50;99.90
53152;DHT22;39234;53.158;6.322;2023-04-15T07:34:21;11.20;99.90
53152;DHT22;39234;53.158;6.322;2023-04-15T07:36:47;11.40;99.90
53152;DHT22;39234;53.158;6.322;2023-04-15T07:39:15;11.40;99.90
53152;DHT22;39234;53.158;6.322;2023-04-15T07:41:41;11.20;99.90
53152;DHT22;39234;53.158;6.322;2023-04-15T07:44:06;11.30;99.90
53152;DHT22;39234;53.158;6.322;2023-04-15T07:46:32;11.30;99.90
53152;DHT22;39234;53.158;6.322;2023-04-15T07:48:58;11.20;99.90
53152;DHT22;39234;53.158;6.322;2023-04-15T07:51:24;11.10;99.90
53152;DHT22;39234;53.158;6.322;2023-04-15T07:53:50;11.10;99.90
53152;DHT22;39234;53.158;6.322;2023-04-15T07:56:16;11.10;99.90
53152;DHT22;39234;53.158;6.322;2023-04-15T07:58:42;10.90;99.90
53152;DHT22;39234;53.158;6.322;2023-04-15T08:01:08;12.80;99.90
53152;DHT22;39234;53.158;6.322;2023-04-15T08:03:33;10.90;99.90
53152;DHT22;39234;53.158;6.322;2023-04-15T08:05:59;10.80;99.90
53152;DHT22;39234;53.158;6.322;2023-04-15T08:08:25;10.80;99.90
53152;DHT22;39234;53.158;6.322;2023-04-15T08:10:51;10.70;99.90
53152;DHT22;39234;53.158;6.322;2023-04-15T08:13:17;10.30;99.90
53152;DHT22;39234;53.158;6.322;2023-04-15T08:15:43;9.90;99.90
53152;DHT22;39234;53.158;6.322;2023-04-15T08:18:09;9.90;99.90
53152;DHT22;39234;53.158;6.322;2023-04-15T08:20:35;9.90;99.90
53152;DHT22;39234;53.158;6.322;2023-04-15T08:23:02;9.70;99.90
53152;DHT22;39234;53.158;6.322;2023-04-15T08:25:28;9.60;99.90
53152;DHT22;39234;53.158;6.322;2023-04-15T08:27:56;9.20;99.90
53152;DHT22;39234;53.158;6.322;2023-04-15T08:30:22;9.20;99.90
53152;DHT22;39234;53.158;6.322;2023-04-15T08:32:50;9.30;99.90
53152;DHT22;39234;53.158;6.322;2023-04-15T08:35:16;9.20;99.90
53152;DHT22;39234;53.158;6.322;2023-04-15T08:37:42;9.40;99.90
53152;DHT22;39234;53.158;6.322;2023-04-15T08:40:08;9.20;99.90
53152;DHT22;39234;53.158;6.322;2023-04-15T08:42:43;9.20;99.90
53152;DHT22;39234;53.158;6.322;2023-04-15T08:45:09;9.20;99.90
53152;DHT22;39234;53.158;6.322;2023-04-15T08:47:38;9.30;99.90
53152;DHT22;39234;53.158;6.322;2023-04-15T08:50:08;9.10;99.90
53152;DHT22;39234;53.158;6.322;2023-04-15T08:52:34;9.10;99.90
53152;DHT22;39234;53.158;6.322;2023-04-15T08:55:01;9.30;99.90
53152;DHT22;39234;53.158;6.322;2023-04-15T08:57:28;9.10;99.90
53152;DHT22;39234;53.158;6.322;2023-04-15T08:59:57;9.20;99.90
53152;DHT22;39234;53.158;6.322;2023-04-15T09:02:24;9.20;99.90
53152;DHT22;39234;53.158;6.322;2023-04-15T09:04:52;9.30;99.90
53152;DHT22;39234;53.158;6.322;2023-04-15T09:07:18;9.30;99.90
53152;DHT22;39234;53.158;6.322;2023-04-15T09:09:44;9.40;99.90
53152;DHT22;39234;53.158;6.322;2023-04-15T09:12:10;9.20;99.90
53152;DHT22;39234;53.158;6.322;2023-04-15T09:14:39;9.40;99.90
53152;DHT22;39234;53.158;6.322;2023-04-15T09:17:05;9.20;99.90
53152;DHT22;39234;53.158;6.322;2023-04-15T09:19:34;9.10;99.90
53152;DHT22;39234;53.158;6.322;2023-04-15T09:22:01;9.10;99.90
53152;DHT22;39234;53.158;6.322;2023-04-15T09:24:35;9.10;99.90
53152;DHT22;39234;53.158;6.322;2023-04-15T09:27:02;9.00;99.90
53152;DHT22;39234;53.158;6.322;2023-04-15T09:29:28;9.10;99.90
53152;DHT22;39234;53.158;6.322;2023-04-15T09:31:54;9.20;99.90
53152;DHT22;39234;53.158;6.322;2023-04-15T09:34:20;9.30;99.90
53152;DHT22;39234;53.158;6.322;2023-04-15T09:36:52;9.70;99.90
53152;DHT22;39234;53.158;6.322;2023-04-15T09:39:19;10.30;99.90
53152;DHT22;39234;53.158;6.322;2023-04-15T09:41:45;10.50;99.90
53152;DHT22;39234;53.158;6.322;2023-04-15T09:44:24;11.10;99.90
53152;DHT22;39234;53.158;6.322;2023-04-15T09:46:50;11.00;99.90
53152;DHT22;39234;53.158;6.322;2023-04-15T09:49:16;10.90;99.90
53152;DHT22;39234;53.158;6.322;2023-04-15T09:51:42;10.90;99.90
53152;DHT22;39234;53.158;6.322;2023-04-15T09:54:08;10.80;99.90
53152;DHT22;39234;53.158;6.322;2023-04-15T09:56:38;10.70;99.90
53152;DHT22;39234;53.158;6.322;2023-04-15T09:59:08;10.80;99.90
53152;DHT22;39234;53.158;6.322;2023-04-15T10:01:34;10.80;99.90
53152;DHT22;39234;53.158;6.322;2023-04-15T10:04:04;10.60;99.90
53152;DHT22;39234;53.158;6.322;2023-04-15T10:06:31;10.70;99.90
53152;DHT22;39234;53.158;6.322;2023-04-15T10:08:58;10.70;99.90
53152;DHT22;39234;53.158;6.322;2023-04-15T10:11:27;10.50;99.90
53152;DHT22;39234;53.158;6.322;2023-04-15T10:13:53;10.60;99.90
53152;DHT22;39234;53.158;6.322;2023-04-15T10:16:21;10.60;99.90
53152;DHT22;39234;53.158;6.322;2023-04-15T10:18:54;10.60;99.90
53152;DHT22;39234;53.158;6.322;2023-04-15T10:21:20;10.60;99.90
53152;DHT22;39234;53.158;6.322;2023-04-15T10:23:47;10.40;99.90
53152;DHT22;39234;53.158;6.322;2023-04-15T10:26:13;10.70;99.90
53152;DHT22;39234;53.158;6.322;2023-04-15T10:28:43;10.40;99.90
53152;DHT22;39234;53.158;6.322;2023-04-15T10:31:13;10.40;99.90
53152;DHT22;39234;53.158;6.322;2023-04-15T10:33:43;10.20;99.90
53152;DHT22;39234;53.158;6.322;2023-04-15T10:36:10;10.30;99.90
53152;DHT22;39234;53.158;6.322;2023-04-15T10:43:44;10.30;99.90
53152;DHT22;39234;53.158;6.322;2023-04-15T10:46:10;10.10;99.90
53152;DHT22;39234;53.158;6.322;2023-04-15T10:48:36;10.00;99.90
53152;DHT22;39234;53.158;6.322;2023-04-15T10:51:01;10.20;99.90
53152;DHT22;39234;53.158;6.322;2023-04-15T10:53:30;10.10;99.90
53152;DHT22;39234;53.158;6.322;2023-04-15T10:55:57;10.00;99.90
53152;DHT22;39234;53.158;6.322;2023-04-15T10:58:42;10.00;99.90
53152;DHT22;39234;53.158;6.322;2023-04-15T11:01:08;10.00;99.90
53152;DHT22;39234;53.158;6.322;2023-04-15T11:03:38;10.00;99.90
53152;DHT22;39234;53.158;6.322;2023-04-15T11:06:05;10.00;99.90
53152;DHT22;39234;53.158;6.322;2023-04-15T11:08:58;9.90;99.90
53152;DHT22;39234;53.158;6.322;2023-04-15T11:12:05;9.90;99.90
53152;DHT22;39234;53.158;6.322;2023-04-15T11:14:33;9.80;99.90
53152;DHT22;39234;53.158;6.322;2023-04-15T11:17:00;9.80;99.90
53152;DHT22;39234;53.158;6.322;2023-04-15T11:19:26;8.00;99.90
53152;DHT22;39234;53.158;6.322;2023-04-15T11:22:09;9.80;99.90
53152;DHT22;39234;53.158;6.322;2023-04-15T11:24:36;9.70;99.90
53152;DHT22;39234;53.158;6.322;2023-04-15T11:27:20;9.80;99.90
53152;DHT22;39234;53.158;6.322;2023-04-15T11:29:46;9.70;99.90
53152;DHT22;39234;53.158;6.322;2023-04-15T11:32:11;11.60;99.90
53152;DHT22;39234;53.158;6.322;2023-04-15T11:34:37;9.70;99.90
53152;DHT22;39234;53.158;6.322;2023-04-15T11:37:06;9.60;99.90
53152;DHT22;39234;53.158;6.322;2023-04-15T11:39:32;9.60;99.90
53152;DHT22;39234;53.158;6.322;2023-04-15T11:41:58;9.70;99.90
53152;DHT22;39234;53.158;6.322;2023-04-15T11:44:24;9.70;99.90
53152;DHT22;39234;53.158;6.322;2023-04-15T11:46:49;9.90;99.90
53152;DHT22;39234;53.158;6.322;2023-04-15T11:49:30;9.90;99.90
53152;DHT22;39234;53.158;6.322;2023-04-15T11:51:58;10.00;99.90
53152;DHT22;39234;53.158;6.322;2023-04-15T11:54:25;9.90;99.90
53152;DHT22;39234;53.158;6.322;2023-04-15T11:56:51;9.70;99.90
53152;DHT22;39234;53.158;6.322;2023-04-15T11:59:18;9.80;99.90
53152;DHT22;39234;53.158;6.322;2023-04-15T12:01:43;10.00;99.90
53152;DHT22;39234;53.158;6.322;2023-04-15T12:04:13;10.10;99.90
53152;DHT22;39234;53.158;6.322;2023-04-15T12:06:39;10.00;99.90
53152;DHT22;39234;53.158;6.322;2023-04-15T12:16:45;9.90;99.90
53152;DHT22;39234;53.158;6.322;2023-04-15T12:19:21;9.80;99.90
53152;DHT22;39234;53.158;6.322;2023-04-15T12:21:48;9.80;99.90
53152;DHT22;39234;53.158;6.322;2023-04-15T12:24:14;9.60;99.90
53152;DHT22;39234;53.158;6.322;2023-04-15T12:26:45;9.50;99.90
53152;DHT22;39234;53.158;6.322;2023-04-15T12:29:13;9.60;99.90
53152;DHT22;39234;53.158;6.322;2023-04-15T12:32:06;9.50;99.90
53152;DHT22;39234;53.158;6.322;2023-04-15T12:34:40;9.80;99.90
53152;DHT22;39234;53.158;6.322;2023-04-15T12:37:09;9.80;99.90
53152;DHT22;39234;53.158;6.322;2023-04-15T12:39:37;9.90;99.90
53152;DHT22;39234;53.158;6.322;2023-04-15T12:42:03;9.70;99.90
53152;DHT22;39234;53.158;6.322;2023-04-15T12:44:30;9.70;99.90
53152;DHT22;39234;53.158;6.322;2023-04-15T12:46:56;9.60;99.90
53152;DHT22;39234;53.158;6.322;2023-04-15T12:49:23;10.00;99.90
53152;DHT22;39234;53.158;6.322;2023-04-15T12:51:50;9.80;99.90
53152;DHT22;39234;53.158;6.322;2023-04-15T12:54:16;9.90;99.90
53152;DHT22;39234;53.158;6.322;2023-04-15T12:56:46;9.80;99.90
53152;DHT22;39234;53.158;6.322;2023-04-15T12:59:13;9.70;99.90
53152;DHT22;39234;53.158;6.322;2023-04-15T13:01:39;9.80;99.90
53152;DHT22;39234;53.158;6.322;2023-04-15T13:04:05;9.60;99.90
53152;DHT22;39234;53.158;6.322;2023-04-15T13:06:31;9.80;99.90
53152;DHT22;39234;53.158;6.322;2023-04-15T13:09:00;9.90;99.90
53152;DHT22;39234;53.158;6.322;2023-04-15T13:11:27;10.00;99.90
53152;DHT22;39234;53.158;6.322;2023-04-15T13:13:59;10.00;99.90
53152;DHT22;39234;53.158;6.322;2023-04-15T13:16:25;10.00;99.90
53152;DHT22;39234;53.158;6.322;2023-04-15T13:18:50;10.10;99.90
53152;DHT22;39234;53.158;6.322;2023-04-15T13:21:17;10.20;99.90
53152;DHT22;39234;53.158;6.322;2023-04-15T13:23:44;10.10;99.90
53152;DHT22;39234;53.158;6.322;2023-04-15T13:26:10;9.90;99.90
53152;DHT22;39234;53.158;6.322;2023-04-15T13:28:35;10.10;99.90
53152;DHT22;39234;53.158;6.322;2023-04-15T13:31:01;10.00;99.90
53152;DHT22;39234;53.158;6.322;2023-04-15T13:33:27;10.00;99.90
53152;DHT22;39234;53.158;6.322;2023-04-15T13:35:53;9.70;99.90
53152;DHT22;39234;53.158;6.322;2023-04-15T13:38:19;9.90;99.90
53152;DHT22;39234;53.158;6.322;2023-04-15T13:40:45;9.80;99.90
53152;DHT22;39234;53.158;6.322;2023-04-15T13:43:11;9.80;99.90
53152;DHT22;39234;53.158;6.322;2023-04-15T13:45:37;9.80;99.90
53152;DHT22;39234;53.158;6.322;2023-04-15T13:48:03;9.60;99.90
53152;DHT22;39234;53.158;6.322;2023-04-15T13:50:29;9.70;99.90
53152;DHT22;39234;53.158;6.322;2023-04-15T13:52:55;9.60;99.90
53152;DHT22;39234;53.158;6.322;2023-04-15T13:55:20;9.60;99.90
53152;DHT22;39234;53.158;6.322;2023-04-15T13:57:46;9.60;99.90
53152;DHT22;39234;53.158;6.322;2023-04-15T14:00:12;9.70;99.90
53152;DHT22;39234;53.158;6.322;2023-04-15T14:02:39;9.60;99.90
53152;DHT22;39234;53.158;6.322;2023-04-15T14:05:06;9.40;99.90
53152;DHT22;39234;53.158;6.322;2023-04-15T14:07:32;9.40;99.90
53152;DHT22;39234;53.158;6.322;2023-04-15T14:09:59;9.50;99.90
53152;DHT22;39234;53.158;6.322;2023-04-15T14:12:24;9.30;99.90
53152;DHT22;39234;53.158;6.322;2023-04-15T14:14:50;9.40;99.90
53152;DHT22;39234;53.158;6.322;2023-04-15T14:17:16;9.00;99.90
53152;DHT22;39234;53.158;6.322;2023-04-15T14:19:42;9.00;99.90
53152;DHT22;39234;53.158;6.322;2023-04-15T14:22:08;9.30;99.90
53152;DHT22;39234;53.158;6.322;2023-04-15T14:24:33;10.00;99.90
53152;DHT22;39234;53.158;6.322;2023-04-15T14:26:59;9.10;99.90
53152;DHT22;39234;53.158;6.322;2023-04-15T14:29:26;9.10;99.90
53152;DHT22;39234;53.158;6.322;2023-04-15T14:31:52;8.90;99.90
53152;DHT22;39234;53.158;6.322;2023-04-15T14:34:18;9.10;99.90
53152;DHT22;39234;53.158;6.322;2023-04-15T14:36:46;9.10;99.90
53152;DHT22;39234;53.158;6.322;2023-04-15T14:39:13;9.00;99.90
53152;DHT22;39234;53.158;6.322;2023-04-15T14:41:38;9.00;99.90
53152;DHT22;39234;53.158;6.322;2023-04-15T14:44:04;9.10;99.90
53152;DHT22;39234;53.158;6.322;2023-04-15T14:46:30;8.90;99.90
53152;DHT22;39234;53.158;6.322;2023-04-15T14:48:56;8.90;99.90
53152;DHT22;39234;53.158;6.322;2023-04-15T14:51:22;9.00;99.90
53152;DHT22;39234;53.158;6.322;2023-04-15T14:53:47;8.80;99.90
53152;DHT22;39234;53.158;6.322;2023-04-15T14:56:13;8.90;99.90
53152;DHT22;39234;53.158;6.322;2023-04-15T14:58:39;8.90;99.90
53152;DHT22;39234;53.158;6.322;2023-04-15T15:01:05;8.80;99.90
53152;DHT22;39234;53.158;6.322;2023-04-15T15:03:31;8.90;99.90
53152;DHT22;39234;53.158;6.322;2023-04-15T15:05:56;10.10;99.90
53152;DHT22;39234;53.158;6.322;2023-04-15T15:08:22;8.90;99.90
53152;DHT22;39234;53.158;6.322;2023-04-15T15:10:48;8.80;99.90
53152;DHT22;39234;53.158;6.322;2023-04-15T15:13:15;8.70;99.90
53152;DHT22;39234;53.158;6.322;2023-04-15T15:15:41;8.70;99.90
53152;DHT22;39234;53.158;6.322;2023-04-15T15:18:07;8.70;99.90
53152;DHT22;39234;53.158;6.322;2023-04-15T15:20:32;8.60;99.90
53152;DHT22;39234;53.158;6.322;2023-04-15T15:22:59;8.70;99.90
53152;DHT22;39234;53.158;6.322;2023-04-15T15:25:25;9.10;99.90
53152;DHT22;39234;53.158;6.322;2023-04-15T15:27:51;8.50;99.90
53152;DHT22;39234;53.158;6.322;2023-04-15T15:30:17;8.50;99.90
53152;DHT22;39234;53.158;6.322;2023-04-15T15:32:42;8.60;99.90
53152;DHT22;39234;53.158;6.322;2023-04-15T15:35:09;8.90;99.90
53152;DHT22;39234;53.158;6.322;2023-04-15T15:37:35;8.30;99.90
53152;DHT22;39234;53.158;6.322;2023-04-15T15:40:04;8.20;99.90
53152;DHT22;39234;53.158;6.322;2023-04-15T15:42:30;8.20;99.90
53152;DHT22;39234;53.158;6.322;2023-04-15T15:44:56;8.30;99.90
53152;DHT22;39234;53.158;6.322;2023-04-15T15:47:22;8.20;99.90
53152;DHT22;39234;53.158;6.322;2023-04-15T15:49:48;8.20;99.90
53152;DHT22;39234;53.158;6.322;2023-04-15T15:52:14;8.20;99.90
53152;DHT22;39234;53.158;6.322;2023-04-15T15:54:40;8.10;99.90
53152;DHT22;39234;53.158;6.322;2023-04-15T15:57:06;8.20;99.90
53152;DHT22;39234;53.158;6.322;2023-04-15T15:59:32;8.10;99.90
53152;DHT22;39234;53.158;6.322;2023-04-15T16:01:58;8.30;99.90
53152;DHT22;39234;53.158;6.322;2023-04-15T16:04:24;8.10;99.90
53152;DHT22;39234;53.158;6.322;2023-04-15T16:06:50;8.10;99.90
53152;DHT22;39234;53.158;6.322;2023-04-15T16:09:16;8.10;99.90
53152;DHT22;39234;53.158;6.322;2023-04-15T16:11:43;7.90;99.90
53152;DHT22;39234;53.158;6.322;2023-04-15T16:14:09;9.10;99.90
53152;DHT22;39234;53.158;6.322;2023-04-15T16:16:35;8.20;99.90
53152;DHT22;39234;53.158;6.322;2023-04-15T16:19:01;8.00;99.90
53152;DHT22;39234;53.158;6.322;2023-04-15T16:21:27;8.00;99.90
53152;DHT22;39234;53.158;6.322;2023-04-15T16:23:53;7.90;99.90
53152;DHT22;39234;53.158;6.322;2023-04-15T16:26:19;8.10;99.90
53152;DHT22;39234;53.158;6.322;2023-04-15T16:28:44;8.00;99.90
53152;DHT22;39234;53.158;6.322;2023-04-15T16:31:11;8.00;99.90
53152;DHT22;39234;53.158;6.322;2023-04-15T16:33:37;7.90;99.90
53152;DHT22;39234;53.158;6.322;2023-04-15T16:36:03;8.00;99.90
53152;DHT22;39234;53.158;6.322;2023-04-15T16:38:29;8.00;99.90
53152;DHT22;39234;53.158;6.322;2023-04-15T16:40:58;8.00;99.90
53152;DHT22;39234;53.158;6.322;2023-04-15T16:43:24;8.50;99.90
53152;DHT22;39234;53.158;6.322;2023-04-15T16:45:50;8.20;99.90
53152;DHT22;39234;53.158;6.322;2023-04-15T16:48:17;7.90;99.90
53152;DHT22;39234;53.158;6.322;2023-04-15T16:50:43;8.00;99.90
53152;DHT22;39234;53.158;6.322;2023-04-15T16:53:09;7.80;99.90
53152;DHT22;39234;53.158;6.322;2023-04-15T16:55:35;8.20;99.90
53152;DHT22;39234;53.158;6.322;2023-04-15T16:58:01;7.90;99.90
53152;DHT22;39234;53.158;6.322;2023-04-15T17:00:27;8.00;99.90
53152;DHT22;39234;53.158;6.322;2023-04-15T17:02:54;8.10;99.90
53152;DHT22;39234;53.158;6.322;2023-04-15T17:05:20;7.70;99.90
53152;DHT22;39234;53.158;6.322;2023-04-15T17:07:46;7.90;99.90
53152;DHT22;39234;53.158;6.322;2023-04-15T17:10:11;7.90;99.90
53152;DHT22;39234;53.158;6.322;2023-04-15T17:12:40;7.90;99.90
53152;DHT22;39234;53.158;6.322;2023-04-15T17:15:06;7.90;99.90
53152;DHT22;39234;53.158;6.322;2023-04-15T17:17:32;7.90;99.90
53152;DHT22;39234;53.158;6.322;2023-04-15T17:19:58;8.00;99.90
53152;DHT22;39234;53.158;6.322;2023-04-15T17:22:24;9.00;99.90
53152;DHT22;39234;53.158;6.322;2023-04-15T17:24:50;7.90;99.90
53152;DHT22;39234;53.158;6.322;2023-04-15T17:27:16;8.50;99.90
53152;DHT22;39234;53.158;6.322;2023-04-15T17:29:41;7.80;99.90
53152;DHT22;39234;53.158;6.322;2023-04-15T17:32:07;8.20;99.90
53152;DHT22;39234;53.158;6.322;2023-04-15T17:34:34;7.70;99.90
53152;DHT22;39234;53.158;6.322;2023-04-15T17:37:00;7.80;99.90
53152;DHT22;39234;53.158;6.322;2023-04-15T17:39:26;7.80;99.90
53152;DHT22;39234;53.158;6.322;2023-04-15T17:41:51;7.80;99.90
53152;DHT22;39234;53.158;6.322;2023-04-15T17:44:17;7.80;99.90
53152;DHT22;39234;53.158;6.322;2023-04-15T17:46:43;7.80;99.90
53152;DHT22;39234;53.158;6.322;2023-04-15T17:49:09;7.90;99.90
53152;DHT22;39234;53.158;6.322;2023-04-15T17:51:35;8.20;99.90
53152;DHT22;39234;53.158;6.322;2023-04-15T17:54:00;8.50;99.90
53152;DHT22;39234;53.158;6.322;2023-04-15T17:56:27;7.80;99.90
53152;DHT22;39234;53.158;6.322;2023-04-15T17:58:52;8.80;99.90
53152;DHT22;39234;53.158;6.322;2023-04-15T18:01:18;6.10;99.90
53152;DHT22;39234;53.158;6.322;2023-04-15T18:03:47;7.60;99.90
53152;DHT22;39234;53.158;6.322;2023-04-15T18:06:12;7.70;99.90
53152;DHT22;39234;53.158;6.322;2023-04-15T18:08:38;7.60;99.90
53152;DHT22;39234;53.158;6.322;2023-04-15T18:11:05;9.00;99.90
53152;DHT22;39234;53.158;6.322;2023-04-15T18:13:31;7.70;99.90
53152;DHT22;39234;53.158;6.322;2023-04-15T18:15:56;7.70;99.90
53152;DHT22;39234;53.158;6.322;2023-04-15T18:18:22;8.60;99.90
53152;DHT22;39234;53.158;6.322;2023-04-15T18:20:48;7.60;99.90
53152;DHT22;39234;53.158;6.322;2023-04-15T18:23:13;7.60;99.90
53152;DHT22;39234;53.158;6.322;2023-04-15T18:25:39;9.40;99.90
53152;DHT22;39234;53.158;6.322;2023-04-15T18:28:08;7.80;99.90
53152;DHT22;39234;53.158;6.322;2023-04-15T18:30:34;7.60;99.90
53152;DHT22;39234;53.158;6.322;2023-04-15T18:33:00;7.70;99.90
53152;DHT22;39234;53.158;6.322;2023-04-15T18:35:26;7.90;99.90
53152;DHT22;39234;53.158;6.322;2023-04-15T18:37:55;7.70;99.90
53152;DHT22;39234;53.158;6.322;2023-04-15T18:40:22;7.80;99.90
53152;DHT22;39234;53.158;6.322;2023-04-15T18:42:47;7.70;99.90
53152;DHT22;39234;53.158;6.322;2023-04-15T18:45:13;7.60;99.90
53152;DHT22;39234;53.158;6.322;2023-04-15T18:47:39;7.80;99.90
53152;DHT22;39234;53.158;6.322;2023-04-15T18:50:06;8.70;99.90
53152;DHT22;39234;53.158;6.322;2023-04-15T18:52:31;7.60;99.90
53152;DHT22;39234;53.158;6.322;2023-04-15T18:54:58;7.90;99.90
53152;DHT22;39234;53.158;6.322;2023-04-15T18:57:24;7.60;99.90
53152;DHT22;39234;53.158;6.322;2023-04-15T18:59:50;7.80;99.90
53152;DHT22;39234;53.158;6.322;2023-04-15T19:02:16;7.60;99.90
53152;DHT22;39234;53.158;6.322;2023-04-15T19:04:42;7.60;99.90
53152;DHT22;39234;53.158;6.322;2023-04-15T19:07:08;7.70;99.90
53152;DHT22;39234;53.158;6.322;2023-04-15T19:09:34;7.70;99.90
53152;DHT22;39234;53.158;6.322;2023-04-15T19:12:01;8.70;99.90
53152;DHT22;39234;53.158;6.322;2023-04-15T19:14:27;8.60;99.90
53152;DHT22;39234;53.158;6.322;2023-04-15T19:16:52;9.00;99.90
53152;DHT22;39234;53.158;6.322;2023-04-15T19:19:18;9.70;99.90
53152;DHT22;39234;53.158;6.322;2023-04-15T19:21:44;7.70;99.90
53152;DHT22;39234;53.158;6.322;2023-04-15T19:24:12;7.60;99.90
53152;DHT22;39234;53.158;6.322;2023-04-15T19:26:38;7.70;99.90
53152;DHT22;39234;53.158;6.322;2023-04-15T19:29:03;7.70;99.90
53152;DHT22;39234;53.158;6.322;2023-04-15T19:31:29;7.80;99.90
53152;DHT22;39234;53.158;6.322;2023-04-15T19:33:55;9.00;99.90
53152;DHT22;39234;53.158;6.322;2023-04-15T19:36:21;7.70;99.90
53152;DHT22;39234;53.158;6.322;2023-04-15T19:38:47;7.70;99.90
53152;DHT22;39234;53.158;6.322;2023-04-15T19:41:12;7.60;99.90
53152;DHT22;39234;53.158;6.322;2023-04-15T19:43:38;7.70;99.90
53152;DHT22;39234;53.158;6.322;2023-04-15T19:46:05;7.80;99.90
53152;DHT22;39234;53.158;6.322;2023-04-15T19:48:31;8.80;99.90
53152;DHT22;39234;53.158;6.322;2023-04-15T19:50:57;8.60;99.90